Charlotteville, New York
Current Conditions -  °F | °C
As of 7:15 AM on Friday 21 Nov 2014 (Local Time) from KNY0 Reporting Station
Overcast Overcast  
Wind Chill:   Ceiling: 1400
Heat Index: 19°   Visibility: 4mi
Dew Point: 15°   Wind: 12mph
Humidity: 88%   Direction: 250°WSW
Pressure: 30.08"   Gusts: NA
Location:  42.55°N, 74.66°W
Report Text: KNY0 211215Z AUTO 25010KT 4SM BKN014 OVC032 M07/M09 A3008 RMK AO2 T10751092
Loading
Personal Weather Stations






























Interactive Weather Map New forecast layout! Learn more

10-Day Weather Forecast

Advertisements
Track Severe Weather on mobile